Time;durP1;ratioP1;P1;durP2;ratioP2;P2;SDS_P1;SDS_P2;PMS_P1;PMS_P2;Temp;Humidity;BMP_temperature;BMP_pressure;BME280_temperature;BME280_humidity;BME280_pressure;Samples;Min_cycle;Max_cycle;Signal;HPM_P1;HPM_P2
2022/10/09 00:00:45;;;;;;;15.70;6.70;;;;;;;7.40;85.84;102487.31;5040204;28;20064;-58
2022/10/09 00:03:11;;;;;;;14.80;6.53;;;;;;;7.39;85.78;102482.13;5044704;28;20041;-57
2022/10/09 00:05:36;;;;;;;13.90;6.65;;;;;;;7.42;85.82;102479.31;5048593;28;20436;-57
2022/10/09 00:08:02;;;;;;;19.58;6.47;;;;;;;7.38;86.09;102489.22;5048692;28;20041;-57
2022/10/09 00:10:27;;;;;;;14.75;6.50;;;;;;;7.40;85.60;102484.69;5035725;28;20026;-58
2022/10/09 00:12:53;;;;;;;14.68;6.50;;;;;;;7.38;85.75;102483.94;5038262;28;20048;-57
2022/10/09 00:15:18;;;;;;;15.63;6.32;;;;;;;7.40;85.44;102491.75;5039034;28;20033;-57
2022/10/09 00:17:43;;;;;;;17.23;6.90;;;;;;;7.33;85.70;102491.31;5036135;28;20050;-57
2022/10/09 00:20:09;;;;;;;11.80;5.82;;;;;;;7.26;86.97;102490.03;5043792;28;20031;-57
2022/10/09 00:22:34;;;;;;;11.13;5.75;;;;;;;7.27;86.60;102486.44;5035134;28;20033;-58
2022/10/09 00:24:59;;;;;;;10.43;5.47;;;;;;;7.29;86.23;102484.53;5049694;28;20055;-57
2022/10/09 00:27:25;;;;;;;14.88;6.18;;;;;;;7.31;86.64;102489.72;5038179;28;20428;-57
2022/10/09 00:29:50;;;;;;;13.52;6.70;;;;;;;7.31;87.06;102489.72;5045071;28;20021;-58
2022/10/09 00:32:16;;;;;;;14.73;6.30;;;;;;;7.28;86.80;102493.41;5041626;28;20025;-57
2022/10/09 00:34:42;;;;;;;13.55;5.60;;;;;;;7.16;87.56;102488.91;5045093;28;20366;-58
2022/10/09 00:37:07;;;;;;;10.00;5.18;;;;;;;7.13;87.35;102490.81;5034726;28;20031;-58
2022/10/09 00:39:33;;;;;;;14.07;5.97;;;;;;;7.12;86.95;102493.53;5034543;28;20388;-58
2022/10/09 00:41:58;;;;;;;10.93;5.82;;;;;;;7.13;87.15;102489.94;5035108;28;20087;-57
2022/10/09 00:44:56;;;;;;;14.80;6.10;;;;;;;7.15;86.99;102487.22;5047829;28;20094;-57
2022/10/09 00:47:27;;;;;;;14.68;6.03;;;;;;;7.04;86.67;102480.84;5041516;28;20032;-58
2022/10/09 00:50:01;;;;;;;11.70;6.20;;;;;;;6.95;87.76;102481.41;5040299;28;20038;-57
2022/10/09 00:52:27;;;;;;;17.05;6.18;;;;;;;6.83;87.33;102486.53;5034442;28;20037;-57
2022/10/09 00:54:53;;;;;;;13.90;6.43;;;;;;;6.81;87.28;102484.94;5049249;28;20033;-57
2022/10/09 00:57:19;;;;;;;15.02;6.50;;;;;;;6.80;87.52;102483.22;5038664;28;20034;-58
2022/10/09 00:59:45;;;;;;;12.18;6.47;;;;;;;6.80;87.68;102478.78;5051245;28;20694;-57
2022/10/09 01:02:10;;;;;;;13.57;6.50;;;;;;;6.75;86.96;102480.03;5054353;28;20024;-58
2022/10/09 01:04:35;;;;;;;13.13;6.25;;;;;;;6.74;86.94;102479.19;5049166;28;20121;-57
2022/10/09 01:07:26;;;;;;;12.18;6.50;;;;;;;6.79;86.99;102477.09;5034535;28;20108;-58
2022/10/09 01:10:08;;;;;;;14.73;6.32;;;;;;;6.76;87.01;102481.72;5046039;28;20095;-57
2022/10/09 01:12:51;;;;;;;17.08;6.70;;;;;;;6.67;87.18;102477.88;5041355;28;20483;-58
2022/10/09 01:15:23;;;;;;;14.50;6.82;;;;;;;6.67;86.49;102475.25;5044908;28;20476;-58
2022/10/09 01:17:58;;;;;;;16.27;6.38;;;;;;;6.72;86.49;102478.44;5034585;28;20033;-57
2022/10/09 01:20:31;;;;;;;14.80;6.70;;;;;;;6.63;86.42;102476.34;5042746;28;20044;-58
2022/10/09 01:23:36;;;;;;;10.90;6.00;;;;;;;6.67;86.80;102488.41;5037978;28;20037;-58
2022/10/09 01:26:36;;;;;;;18.70;6.40;;;;;;;6.67;86.43;102483.97;5035697;28;20534;-58
2022/10/09 01:29:06;;;;;;;11.15;6.55;;;;;;;6.54;86.24;102468.09;5038282;28;20552;-58
2022/10/09 01:31:38;;;;;;;14.25;6.15;;;;;;;6.63;86.49;102481.63;5043403;28;20036;-58
2022/10/09 01:34:05;;;;;;;13.25;6.43;;;;;;;6.57;86.08;102470.53;5039423;28;20018;-57
2022/10/09 01:36:31;;;;;;;15.35;6.20;;;;;;;6.56;86.29;102471.47;5045371;28;20029;-57
2022/10/09 01:38:59;;;;;;;13.13;6.18;;;;;;;6.55;86.60;102468.91;5048737;28;20064;-56
2022/10/09 01:41:26;;;;;;;12.60;6.30;;;;;;;6.52;86.42;102472.59;5047848;28;20043;-58
2022/10/09 01:43:51;;;;;;;14.90;6.15;;;;;;;6.50;86.35;102460.47;5039749;28;20105;-57
2022/10/09 01:46:27;;;;;;;12.50;6.13;;;;;;;6.49;86.59;102458.75;5042510;28;20124;-58
2022/10/09 01:49:12;;;;;;;15.88;6.18;;;;;;;6.47;86.19;102450.97;5046429;28;20499;-57
2022/10/09 01:51:48;;;;;;;12.43;6.20;;;;;;;6.45;86.27;102458.97;5042089;28;20083;-58
2022/10/09 01:54:19;;;;;;;12.95;6.40;;;;;;;6.30;86.56;102447.56;5041068;28;20025;-57
2022/10/09 01:56:48;;;;;;;10.35;5.95;;;;;;;6.42;86.36;102447.75;5045517;28;20520;-57
2022/10/09 01:59:17;;;;;;;11.55;5.93;;;;;;;6.38;86.66;102446.25;5036339;28;20095;-57
2022/10/09 02:01:45;;;;;;;13.82;6.43;;;;;;;6.42;86.77;102453.03;5039122;28;20029;-57
2022/10/09 02:04:13;;;;;;;12.60;5.97;;;;;;;6.32;86.24;102443.03;5048761;28;20024;-57
2022/10/09 02:06:41;;;;;;;11.85;6.20;;;;;;;6.31;86.46;102432.59;5038805;28;20021;-57
2022/10/09 02:09:11;;;;;;;12.80;6.07;;;;;;;6.32;86.82;102437.78;5031845;28;20392;-57
2022/10/09 02:11:39;;;;;;;14.75;6.47;;;;;;;6.29;86.92;102432.72;5036856;28;20029;-56
2022/10/09 02:14:05;;;;;;;12.98;6.18;;;;;;;6.28;86.36;102436.25;5043030;28;20046;-56
2022/10/09 02:16:37;;;;;;;12.77;6.35;;;;;;;6.24;87.31;102429.50;5036805;28;20025;-59
2022/10/09 02:19:25;;;;;;;11.18;6.53;;;;;;;6.28;86.71;102436.25;5037077;28;20038;-57
2022/10/09 02:22:13;;;;;;;14.40;6.40;;;;;;;6.27;86.52;102429.28;5042919;28;20032;-56
2022/10/09 02:24:41;;;;;;;15.48;6.03;;;;;;;6.14;86.02;102428.34;5042069;28;20107;-56
2022/10/09 02:27:07;;;;;;;13.02;6.53;;;;;;;6.05;86.78;102425.34;5045292;28;20457;-57
2022/10/09 02:29:33;;;;;;;11.88;5.75;;;;;;;6.00;86.63;102426.53;5039159;28;20374;-57
2022/10/09 02:31:58;;;;;;;11.73;5.90;;;;;;;5.99;86.75;102412.53;5032012;28;20091;-57
2022/10/09 02:34:24;;;;;;;11.40;5.70;;;;;;;6.01;86.22;102417.69;5039368;28;20385;-58
2022/10/09 02:36:49;;;;;;;13.35;6.38;;;;;;;5.92;86.45;102424.34;5033162;28;20025;-56
2022/10/09 02:39:14;;;;;;;12.45;6.18;;;;;;;6.01;87.33;102413.28;5039078;28;20045;-57
2022/10/09 02:41:40;;;;;;;11.13;6.18;;;;;;;5.99;87.45;102420.44;5039091;28;20037;-57
2022/10/09 02:44:06;;;;;;;11.68;6.20;;;;;;;5.92;86.96;102424.34;5049865;28;20024;-57
2022/10/09 02:46:31;;;;;;;15.77;6.68;;;;;;;5.86;86.59;102415.03;5050257;28;20032;-57
2022/10/09 02:48:57;;;;;;;12.18;6.50;;;;;;;5.88;86.86;102417.59;5046273;28;20038;-57
2022/10/09 02:51:23;;;;;;;12.93;6.13;;;;;;;5.90;87.16;102421.81;5036672;28;20037;-58
2022/10/09 02:53:52;;;;;;;15.65;6.20;;;;;;;5.83;87.08;102406.47;5046159;28;20033;-56
2022/10/09 02:56:18;;;;;;;13.57;6.75;;;;;;;5.90;86.55;102426.22;5039976;28;20044;-58
2022/10/09 02:58:43;;;;;;;13.80;6.55;;;;;;;5.88;86.58;102422.84;5045666;28;20588;-58
2022/10/09 03:01:08;;;;;;;11.73;6.43;;;;;;;5.85;87.21;102415.97;5044573;28;20027;-57
2022/10/09 03:03:34;;;;;;;13.57;6.18;;;;;;;5.84;86.69;102411.66;5044992;28;20570;-58
2022/10/09 03:06:05;;;;;;;12.48;6.25;;;;;;;5.91;87.39;102412.13;5035568;28;20052;-56
2022/10/09 03:08:30;;;;;;;12.13;6.25;;;;;;;5.86;86.43;102414.16;5042570;28;20057;-56
2022/10/09 03:10:56;;;;;;;13.82;6.20;;;;;;;5.73;86.48;102407.00;5036537;28;20428;-57
2022/10/09 03:13:21;;;;;;;13.40;6.88;;;;;;;5.64;87.33;102403.13;5042543;28;20036;-58
2022/10/09 03:15:46;;;;;;;13.85;6.45;;;;;;;5.60;87.15;102404.28;5044969;28;20503;-56
2022/10/09 03:18:12;;;;;;;14.40;6.90;;;;;;;5.57;88.22;102408.88;5046916;28;20069;-56
2022/10/09 03:20:37;;;;;;;14.88;7.80;;;;;;;5.51;88.45;102408.28;5038737;28;20029;-56
2022/10/09 03:23:03;;;;;;;14.55;7.10;;;;;;;5.57;89.07;102411.50;5039158;28;20061;-58
2022/10/09 03:25:28;;;;;;;18.23;7.60;;;;;;;5.54;88.64;102409.03;5047326;28;20056;-56
2022/10/09 03:27:53;;;;;;;12.75;7.63;;;;;;;5.58;89.18;102400.03;5041267;28;20034;-57
2022/10/09 03:30:18;;;;;;;16.75;7.20;;;;;;;5.61;89.43;102405.09;5044187;28;20028;-57
2022/10/09 03:32:44;;;;;;;16.17;7.55;;;;;;;5.64;88.90;102399.66;5047902;28;20480;-57
2022/10/09 03:35:09;;;;;;;14.90;7.70;;;;;;;5.64;88.85;102397.03;5047182;28;20036;-57
2022/10/09 03:37:34;;;;;;;16.48;7.75;;;;;;;5.63;88.80;102397.97;5040605;28;20033;-57
2022/10/09 03:39:59;;;;;;;15.27;7.13;;;;;;;5.67;88.61;102399.47;5031316;28;20049;-57
2022/10/09 03:42:25;;;;;;;17.23;7.65;;;;;;;5.63;88.80;102395.34;5042047;28;20079;-60
2022/10/09 03:44:50;;;;;;;14.73;7.95;;;;;;;5.60;90.01;102398.16;5046074;28;20037;-56
2022/10/09 03:47:16;;;;;;;14.30;7.22;;;;;;;5.59;88.79;102386.78;5039257;28;20113;-58
2022/10/09 03:49:41;;;;;;;14.40;7.45;;;;;;;5.57;88.59;102393.91;5034584;28;20040;-59
2022/10/09 03:52:06;;;;;;;14.68;7.55;;;;;;;5.61;88.84;102395.44;5032860;28;20029;-56
2022/10/09 03:54:32;;;;;;;17.30;7.85;;;;;;;5.59;89.17;102391.19;5040190;28;20040;-58
2022/10/09 03:56:57;;;;;;;17.67;7.85;;;;;;;5.62;89.36;102398.88;5039506;28;20021;-58
2022/10/09 03:59:22;;;;;;;14.38;7.53;;;;;;;5.64;88.72;102394.41;5038545;28;20401;-57
2022/10/09 04:01:48;;;;;;;14.75;7.50;;;;;;;5.66;88.41;102416.22;5034180;28;20044;-57
2022/10/09 04:04:13;;;;;;;11.00;6.75;;;;;;;5.66;88.74;102410.94;5045353;28;20087;-58
2022/10/09 04:06:38;;;;;;;15.10;7.35;;;;;;;5.59;88.57;102406.97;5038214;28;20025;-57
2022/10/09 04:09:04;;;;;;;12.85;6.63;;;;;;;5.55;88.80;102406.31;5036350;28;20034;-58
2022/10/09 04:11:29;;;;;;;13.20;6.88;;;;;;;5.59;88.82;102407.84;5036987;28;20183;-57
2022/10/09 04:13:54;;;;;;;12.45;7.13;;;;;;;5.54;87.79;102409.03;5044956;28;20055;-58
2022/10/09 04:16:19;;;;;;;13.00;6.95;;;;;;;5.49;88.22;102402.25;5037129;28;20037;-59
2022/10/09 04:18:46;;;;;;;13.25;7.20;;;;;;;5.46;88.15;102402.44;5036474;28;20036;-58
2022/10/09 04:21:11;;;;;;;15.50;6.97;;;;;;;5.42;88.38;102406.16;5033516;28;20465;-58
2022/10/09 04:23:37;;;;;;;16.17;7.32;;;;;;;5.39;87.76;102407.19;5051005;28;20079;-56
2022/10/09 04:26:02;;;;;;;15.48;7.28;;;;;;;5.39;88.04;102401.09;5037539;28;20060;-57
2022/10/09 04:28:30;;;;;;;13.38;7.65;;;;;;;5.33;88.33;102397.03;5038825;28;20044;-58
2022/10/09 04:30:56;;;;;;;13.48;7.65;;;;;;;5.35;87.84;102394.31;5033964;28;20033;-57
2022/10/09 04:33:22;;;;;;;13.65;7.40;;;;;;;5.32;88.16;102390.06;5043708;28;20291;-58
2022/10/09 04:35:50;;;;;;;14.02;7.72;;;;;;;5.31;87.99;102392.78;5033413;28;20044;-57
2022/10/09 04:38:15;;;;;;;16.10;7.43;;;;;;;5.31;87.81;102392.78;5042455;28;20025;-56
2022/10/09 04:40:40;;;;;;;15.43;7.70;;;;;;;5.31;88.46;102390.16;5036304;28;20050;-56
2022/10/09 04:43:06;;;;;;;12.75;7.20;;;;;;;5.29;88.57;102395.53;5042776;28;20073;-58
2022/10/09 04:45:31;;;;;;;14.15;7.55;;;;;;;5.27;87.97;102397.38;5040812;28;20477;-57
2022/10/09 04:47:56;;;;;;;16.73;7.43;;;;;;;5.27;88.32;102386.03;5043226;28;20041;-58
2022/10/09 04:50:22;;;;;;;15.30;7.93;;;;;;;5.27;88.25;102386.03;5034564;28;20147;-57
2022/10/09 04:52:47;;;;;;;13.65;7.50;;;;;;;5.25;88.46;102383.47;5039339;28;20029;-57
2022/10/09 04:55:12;;;;;;;17.35;8.18;;;;;;;5.25;88.66;102384.31;5039333;28;20033;-58
2022/10/09 04:57:38;;;;;;;13.80;7.60;;;;;;;5.23;88.37;102386.19;5041339;28;20037;-57
2022/10/09 05:00:04;;;;;;;15.57;7.80;;;;;;;5.21;88.17;102382.81;5038253;28;20045;-57
2022/10/09 05:02:29;;;;;;;16.52;7.53;;;;;;;5.15;87.80;102377.03;5038301;28;20499;-57
2022/10/09 05:04:56;;;;;;;13.82;7.35;;;;;;;5.14;88.81;102370.09;5037929;28;20056;-57
2022/10/09 05:07:21;;;;;;;15.18;7.60;;;;;;;5.08;88.23;102373.94;5034959;28;20419;-58
2022/10/09 05:09:46;;;;;;;15.50;7.40;;;;;;;5.06;88.65;102368.75;5035508;28;20041;-57
2022/10/09 05:12:12;;;;;;;13.77;7.43;;;;;;;5.08;88.44;102364.25;5039610;28;20038;-57
2022/10/09 05:14:37;;;;;;;12.40;7.50;;;;;;;5.07;88.74;102364.31;5035879;28;20029;-56
2022/10/09 05:17:04;;;;;;;15.93;7.65;;;;;;;5.08;88.41;102364.25;5034530;28;20508;-58
2022/10/09 05:19:31;;;;;;;13.25;7.50;;;;;;;5.07;88.83;102369.59;5041761;28;20481;-58
2022/10/09 05:21:56;;;;;;;15.52;7.03;;;;;;;5.07;88.03;102359.06;5036086;28;20029;-58
2022/10/09 05:24:21;;;;;;;12.38;7.15;;;;;;;5.04;87.86;102359.25;5038307;28;20526;-57
2022/10/09 05:26:46;;;;;;;15.73;7.32;;;;;;;5.02;88.02;102369.03;5035924;28;20033;-57
2022/10/09 05:29:12;;;;;;;15.60;6.93;;;;;;;4.96;88.35;102368.44;5036070;28;20084;-57
2022/10/09 05:31:37;;;;;;;14.40;7.60;;;;;;;4.92;88.87;102361.66;5036493;28;20056;-57
2022/10/09 05:34:03;;;;;;;11.70;6.90;;;;;;;4.92;88.08;102366.03;5037699;28;20553;-57
2022/10/09 05:36:28;;;;;;;13.20;6.65;;;;;;;4.88;88.31;102360.13;5038033;28;20099;-58
2022/10/09 05:38:54;;;;;;;17.20;7.35;;;;;;;4.86;88.38;102367.25;5037819;28;20046;-56
2022/10/09 05:41:20;;;;;;;13.43;7.07;;;;;;;4.83;88.17;102367.41;5037714;28;20034;-57
2022/10/09 05:43:47;;;;;;;14.73;6.90;;;;;;;4.80;88.71;102359.72;5034652;28;20029;-57
2022/10/09 05:46:18;;;;;;;16.35;7.20;;;;;;;4.79;89.07;102365.91;5035465;28;20039;-57
2022/10/09 05:48:53;;;;;;;17.10;7.55;;;;;;;4.70;88.71;102368.09;5036617;28;20037;-57
2022/10/09 05:51:21;;;;;;;11.82;6.75;;;;;;;4.68;88.50;102362.09;5039386;28;20939;-58
2022/10/09 05:53:47;;;;;;;15.57;7.65;;;;;;;4.69;89.25;102360.31;5037417;28;20032;-57
2022/10/09 05:56:18;;;;;;;13.50;7.10;;;;;;;4.73;89.07;102361.00;5038420;28;20033;-57
2022/10/09 05:58:49;;;;;;;13.45;7.07;;;;;;;4.72;88.33;102360.13;5032222;28;20044;-56
2022/10/09 06:01:14;;;;;;;14.38;6.85;;;;;;;4.63;88.55;102356.22;5037017;28;20030;-57
2022/10/09 06:03:39;;;;;;;15.68;6.93;;;;;;;4.65;88.30;102359.63;5035790;28;20037;-57
2022/10/09 06:06:07;;;;;;;14.10;7.20;;;;;;;4.60;89.19;102361.66;5037962;28;20068;-57
2022/10/09 06:08:35;;;;;;;15.02;6.97;;;;;;;4.57;89.41;102346.91;5034897;28;20160;-56
2022/10/09 06:11:10;;;;;;;22.45;7.28;;;;;;;4.60;89.11;102366.91;5035762;28;20021;-56
2022/10/09 06:13:36;;;;;;;16.85;7.18;;;;;;;4.64;89.20;102360.53;5038455;28;20033;-59
2022/10/09 06:16:01;;;;;;;13.10;6.85;;;;;;;4.63;89.47;102355.41;5036028;28;20041;-57
2022/10/09 06:18:26;;;;;;;13.40;7.00;;;;;;;4.69;89.59;102370.81;5035522;28;20055;-57
2022/10/09 06:20:57;;;;;;;12.15;6.82;;;;;;;4.67;89.49;102357.75;5033573;28;20057;-57
2022/10/09 06:23:22;;;;;;;20.08;8.10;;;;;;;4.70;89.67;102370.72;5038013;28;20118;-57
2022/10/09 06:25:57;;;;;;;18.67;10.10;;;;;;;4.71;90.02;102367.19;5030176;28;20472;-58
2022/10/09 06:28:22;;;;;;;20.00;9.90;;;;;;;4.71;89.81;102369.81;5037368;28;20037;-58
2022/10/09 06:30:48;;;;;;;18.20;9.90;;;;;;;4.79;89.26;102363.28;5036561;28;20078;-57
2022/10/09 06:33:13;;;;;;;18.20;9.75;;;;;;;4.79;89.46;102365.91;5034784;28;20040;-58
2022/10/09 06:35:39;;;;;;;20.02;10.55;;;;;;;4.73;89.82;102376.75;5038878;28;20456;-57
2022/10/09 06:38:05;;;;;;;19.52;9.55;;;;;;;4.76;90.01;102358.19;5040825;28;20028;-60
2022/10/09 06:40:34;;;;;;;18.80;9.50;;;;;;;4.82;89.36;102370.97;5037136;28;20052;-58
2022/10/09 06:42:59;;;;;;;16.35;9.20;;;;;;;4.89;89.84;102369.69;5035382;28;20034;-56
2022/10/09 06:45:24;;;;;;;22.08;9.75;;;;;;;4.88;90.13;102373.25;5035673;28;20079;-57
2022/10/09 06:47:49;;;;;;;17.67;9.50;;;;;;;4.95;89.70;102369.34;5036680;28;20026;-57
2022/10/09 06:50:15;;;;;;;20.20;9.80;;;;;;;4.96;90.06;102373.69;5033957;28;20492;-58
2022/10/09 06:52:41;;;;;;;22.25;9.43;;;;;;;4.98;90.65;102366.56;5036647;28;20082;-58
2022/10/09 06:55:06;;;;;;;17.40;9.25;;;;;;;5.03;91.30;102360.19;5035323;28;20553;-58
2022/10/09 06:57:32;;;;;;;18.73;9.95;;;;;;;5.02;91.38;102361.97;5034210;28;20030;-57
2022/10/09 06:59:57;;;;;;;19.77;10.45;;;;;;;5.14;91.00;102370.09;5034297;28;20465;-57
2022/10/09 07:02:22;;;;;;;18.40;10.38;;;;;;;5.20;92.01;102369.75;5033948;28;20033;-58
2022/10/09 07:04:47;;;;;;;18.20;10.70;;;;;;;5.21;92.14;102372.28;5035050;28;20033;-58
2022/10/09 07:07:12;;;;;;;22.17;11.15;;;;;;;5.33;92.96;102372.53;5030975;28;20528;-59
2022/10/09 07:09:38;;;;;;;18.88;10.85;;;;;;;5.41;92.22;102367.66;5030721;28;20029;-56
2022/10/09 07:12:03;;;;;;;17.67;10.48;;;;;;;5.48;92.44;102374.25;5034232;28;20033;-58
2022/10/09 07:14:29;;;;;;;17.63;10.00;;;;;;;5.57;93.06;102372.03;5033517;28;20510;-57
2022/10/09 07:16:54;;;;;;;21.33;11.05;;;;;;;5.58;92.86;102365.81;5033880;28;20045;-57
2022/10/09 07:19:20;;;;;;;21.95;11.05;;;;;;;5.62;93.65;102376.06;5031229;28;20029;-57
2022/10/09 07:21:47;;;;;;;20.80;10.82;;;;;;;5.68;94.54;102369.59;5031347;28;20034;-58
2022/10/09 07:24:13;;;;;;;21.05;11.48;;;;;;;5.75;93.92;102368.28;5031288;28;20036;-57
2022/10/09 07:26:42;;;;;;;19.88;10.57;;;;;;;5.86;94.91;102367.63;5034510;28;20032;-59
2022/10/09 07:29:08;;;;;;;20.15;10.70;;;;;;;5.91;94.02;102369.97;5040632;28;20064;-57
2022/10/09 07:31:34;;;;;;;20.95;10.63;;;;;;;6.03;94.76;102364.00;5036008;28;20382;-57
2022/10/09 07:34:00;;;;;;;20.92;11.20;;;;;;;6.12;94.91;102361.75;5039441;28;20029;-56
2022/10/09 07:36:25;;;;;;;18.77;10.68;;;;;;;6.19;95.26;102368.34;5037295;28;20476;-57
2022/10/09 07:38:53;;;;;;;18.23;11.18;;;;;;;6.24;95.13;102366.28;5037920;28;20127;-58
2022/10/09 07:41:19;;;;;;;17.30;11.05;;;;;;;6.35;95.65;102370.03;5038773;28;20040;-57
2022/10/09 07:43:45;;;;;;;24.98;11.32;;;;;;;6.43;95.29;102354.59;5036308;28;20022;-58
2022/10/09 07:46:12;;;;;;;18.65;11.23;;;;;;;6.51;96.17;102359.38;5035965;28;20515;-56
2022/10/09 07:48:38;;;;;;;19.85;11.70;;;;;;;6.59;96.40;102370.28;5036484;28;20052;-57
2022/10/09 07:51:12;;;;;;;20.60;11.50;;;;;;;6.67;96.51;102373.25;5035501;28;20541;-57
2022/10/09 07:53:37;;;;;;;22.85;12.25;;;;;;;6.73;96.59;102364.94;5036519;28;20041;-58
2022/10/09 07:56:03;;;;;;;20.67;11.88;;;;;;;6.82;96.62;102366.16;5037466;28;20040;-58
2022/10/09 07:58:29;;;;;;;21.73;12.57;;;;;;;6.92;96.43;102370.84;5033507;28;20508;-57
2022/10/09 08:00:54;;;;;;;18.98;12.98;;;;;;;7.00;96.77;102368.53;5034318;28;20029;-58
2022/10/09 08:03:19;;;;;;;20.13;12.43;;;;;;;7.06;96.88;102357.59;5037430;28;20120;-59
2022/10/09 08:05:55;;;;;;;17.92;12.05;;;;;;;7.15;96.15;102360.59;5035732;28;20427;-57
2022/10/09 08:08:20;;;;;;;21.13;12.80;;;;;;;7.25;96.55;102356.38;5033653;28;20083;-58
2022/10/09 08:10:46;;;;;;;19.88;12.50;;;;;;;7.32;96.50;102351.53;5032953;28;20028;-57
2022/10/09 08:13:11;;;;;;;23.60;13.25;;;;;;;7.42;95.88;102357.03;5035274;28;20504;-57
2022/10/09 08:15:41;;;;;;;24.27;14.18;;;;;;;7.51;96.47;102357.25;5035084;28;20033;-57
2022/10/09 08:18:07;;;;;;;22.60;14.00;;;;;;;7.59;95.94;102348.84;5034376;28;20032;-58
2022/10/09 08:20:32;;;;;;;22.10;13.25;;;;;;;7.63;95.19;102350.31;5036196;28;20072;-58
2022/10/09 08:22:57;;;;;;;22.88;14.05;;;;;;;7.72;95.71;102353.28;5036084;28;20025;-57
2022/10/09 08:25:22;;;;;;;20.35;13.60;;;;;;;7.80;95.32;102350.97;5039269;28;20051;-60
2022/10/09 08:27:51;;;;;;;23.83;14.38;;;;;;;7.84;94.92;102347.16;5040687;28;20076;-57
2022/10/09 08:30:16;;;;;;;21.95;13.82;;;;;;;7.95;95.08;102354.34;5038890;28;20040;-57
2022/10/09 08:32:42;;;;;;;22.23;13.57;;;;;;;8.03;94.19;102343.22;5034736;28;20025;-56
2022/10/09 08:35:07;;;;;;;23.13;14.00;;;;;;;8.11;93.70;102343.53;5034791;28;20302;-57
2022/10/09 08:37:32;;;;;;;23.52;13.98;;;;;;;8.20;94.07;102337.59;5037335;28;20493;-57
2022/10/09 08:39:58;;;;;;;22.75;14.20;;;;;;;8.27;94.23;102337.16;5036638;28;20489;-57
2022/10/09 08:42:35;;;;;;;22.38;13.55;;;;;;;8.31;93.71;102328.06;5035439;28;20025;-58
2022/10/09 08:45:01;;;;;;;28.73;13.82;;;;;;;8.43;92.45;102336.91;5038180;28;20065;-57
2022/10/09 08:47:45;;;;;;;23.23;13.20;;;;;;;8.53;92.07;102331.84;5034738;28;20111;-57
2022/10/09 08:50:17;;;;;;;22.17;13.68;;;;;;;8.64;91.12;102331.91;5037751;28;20072;-58
2022/10/09 08:53:27;;;;;;;21.23;12.90;;;;;;;8.75;90.63;102331.94;5040347;28;20025;-57
2022/10/09 08:55:55;;;;;;;23.90;12.52;;;;;;;8.81;89.29;102319.22;5036563;28;20099;-60
2022/10/09 08:58:33;;;;;;;22.42;12.30;;;;;;;8.94;88.71;102308.59;5038938;28;20485;-58
2022/10/09 09:01:13;;;;;;;24.13;12.50;;;;;;;9.02;88.89;102317.66;5038164;28;20029;-58
2022/10/09 09:03:52;;;;;;;20.23;12.40;;;;;;;9.12;87.91;102311.66;5041719;28;20385;-58
2022/10/09 09:06:42;;;;;;;21.13;11.98;;;;;;;9.22;87.92;102312.66;5040100;28;20030;-58
2022/10/09 09:09:18;;;;;;;19.42;11.32;;;;;;;9.35;87.57;102317.00;5040902;28;20025;-60
2022/10/09 09:11:52;;;;;;;20.95;10.48;;;;;;;9.53;86.69;102302.38;5035151;28;20507;-59
2022/10/09 09:14:28;;;;;;;18.48;9.43;;;;;;;9.61;85.72;102300.91;5036066;28;20033;-58
2022/10/09 09:17:01;;;;;;;19.67;9.30;;;;;;;9.66;84.63;102304.91;5035022;28;20056;-58
2022/10/09 09:19:32;;;;;;;16.73;9.15;;;;;;;9.78;82.81;102303.09;5029719;28;20450;-58
2022/10/09 09:21:58;;;;;;;17.33;8.90;;;;;;;9.85;83.09;102297.31;5039979;28;20029;-59
2022/10/09 09:24:36;;;;;;;15.77;8.55;;;;;;;10.00;82.66;102296.13;5032789;28;20037;-58
2022/10/09 09:27:13;;;;;;;16.55;9.10;;;;;;;10.07;82.02;102285.88;5035641;28;20079;-58
2022/10/09 09:29:43;;;;;;;14.93;8.40;;;;;;;10.17;80.86;102283.34;5034749;28;20481;-58
2022/10/09 09:32:16;;;;;;;16.85;8.73;;;;;;;10.23;81.69;102282.84;5036538;28;20061;-58
2022/10/09 09:34:41;;;;;;;15.65;8.85;;;;;;;10.30;81.85;102280.53;5033861;28;20496;-58
2022/10/09 09:37:10;;;;;;;17.25;8.70;;;;;;;10.34;82.04;102266.91;5033030;28;20029;-58
2022/10/09 09:39:36;;;;;;;16.02;8.32;;;;;;;10.45;80.76;102267.84;5038982;28;20040;-59
2022/10/09 09:42:14;;;;;;;15.43;8.13;;;;;;;10.56;79.64;102264.34;5035089;28;20511;-58
2022/10/09 09:44:46;;;;;;;13.60;8.15;;;;;;;10.65;79.23;102262.75;5037161;28;20393;-58
2022/10/09 09:47:22;;;;;;;13.95;7.40;;;;;;;10.79;79.26;102258.91;5029346;28;20057;-57
2022/10/09 09:49:56;;;;;;;14.88;7.97;;;;;;;10.92;77.55;102261.41;5035124;28;20030;-58
2022/10/09 09:52:24;;;;;;;13.63;7.65;;;;;;;10.97;78.93;102249.44;5035492;28;20040;-57
2022/10/09 09:54:50;;;;;;;16.95;7.65;;;;;;;11.08;79.02;102253.84;5030131;28;20109;-58
2022/10/09 09:57:28;;;;;;;14.38;7.22;;;;;;;11.12;77.73;102249.09;5031908;28;20048;-58
2022/10/09 09:59:53;;;;;;;16.55;7.30;;;;;;;11.23;77.52;102234.91;5033090;28;20048;-62
2022/10/09 10:02:24;;;;;;;16.40;7.75;;;;;;;11.30;76.88;102238.75;5034061;28;20041;-61
2022/10/09 10:04:57;;;;;;;13.88;7.20;;;;;;;11.42;75.98;102235.03;5039011;28;20025;-61
2022/10/09 10:07:34;;;;;;;15.35;6.63;;;;;;;11.54;75.47;102237.56;5034147;28;20163;-61
2022/10/09 10:10:12;;;;;;;14.38;6.82;;;;;;;11.62;74.54;102229.78;5032411;28;20795;-62
2022/10/09 10:12:45;;;;;;;17.13;6.43;;;;;;;11.65;74.37;102221.53;5030932;28;20065;-61
2022/10/09 10:15:20;;;;;;;12.45;5.90;;;;;;;11.84;74.64;102234.06;5034750;28;20033;-61
2022/10/09 10:17:48;;;;;;;14.60;6.50;;;;;;;11.88;71.99;102223.16;5034626;28;20084;-62
2022/10/09 10:20:17;;;;;;;12.75;6.53;;;;;;;11.96;73.71;102223.31;5041498;28;20460;-61
2022/10/09 10:22:51;;;;;;;13.20;6.05;;;;;;;12.01;72.78;102220.25;5035864;28;20022;-61
2022/10/09 10:25:19;;;;;;;15.32;6.82;;;;;;;12.09;71.74;102215.13;5038276;28;20586;-62
2022/10/09 10:27:49;;;;;;;15.07;5.90;;;;;;;12.15;70.89;102219.03;5035733;28;20061;-62
2022/10/09 10:30:16;;;;;;;12.35;5.80;;;;;;;12.17;70.54;102206.44;5042035;28;20029;-60
2022/10/09 10:32:49;;;;;;;15.48;6.47;;;;;;;12.26;70.66;102212.75;5035212;28;20136;-61
2022/10/09 10:35:29;;;;;;;12.15;5.80;;;;;;;12.29;70.43;102205.31;5033531;28;20633;-61
2022/10/09 10:38:05;;;;;;;12.63;5.90;;;;;;;12.34;70.25;102208.41;5041746;28;20025;-62
2022/10/09 10:40:43;;;;;;;13.40;5.65;;;;;;;12.42;69.31;102197.06;5036689;28;20045;-61
2022/10/09 10:43:08;;;;;;;13.07;5.78;;;;;;;12.52;68.14;102189.09;5039329;28;20043;-61
2022/10/09 10:45:42;;;;;;;10.20;5.30;;;;;;;12.58;68.48;102193.03;5033880;28;20365;-63
2022/10/09 10:48:18;;;;;;;14.02;5.68;;;;;;;12.60;68.90;102180.41;5034356;28;20094;-62
2022/10/09 10:51:07;;;;;;;13.07;5.75;;;;;;;12.63;70.20;102180.94;5026689;28;20052;-61
2022/10/09 10:53:57;;;;;;;14.52;5.03;;;;;;;12.70;67.67;102173.25;5034064;28;20529;-59
2022/10/09 10:56:31;;;;;;;13.15;5.28;;;;;;;12.68;67.92;102175.19;5032303;28;20037;-59
2022/10/09 10:59:15;;;;;;;9.23;5.05;;;;;;;12.74;67.93;102160.50;5031576;28;20039;-60
2022/10/09 11:01:51;;;;;;;10.27;5.68;;;;;;;12.90;69.38;102165.22;5032376;28;20129;-58
2022/10/09 11:04:47;;;;;;;9.38;5.32;;;;;;;12.91;67.24;102156.25;5028783;28;20616;-57
2022/10/09 11:07:25;;;;;;;13.23;5.28;;;;;;;13.01;66.27;102157.06;5036364;28;20025;-58
2022/10/09 11:10:22;;;;;;;10.82;4.78;;;;;;;13.10;66.88;102149.16;5035179;28;20025;-59
2022/10/09 11:12:54;;;;;;;10.80;5.07;;;;;;;13.07;66.53;102149.47;5028999;28;20029;-58
2022/10/09 11:15:53;;;;;;;11.82;5.00;;;;;;;13.09;66.69;102144.84;5032291;28;20485;-59
2022/10/09 11:18:43;;;;;;;9.98;4.43;;;;;;;13.12;66.17;102139.22;5035668;28;20035;-59
2022/10/09 11:22:00;;;;;;;9.48;4.32;;;;;;;13.16;66.03;102138.78;5033829;28;20388;-61
2022/10/09 11:24:51;;;;;;;11.73;4.82;;;;;;;13.29;65.85;102143.78;5032300;28;20110;-60
2022/10/09 11:27:32;;;;;;;9.93;4.30;;;;;;;13.27;64.00;102139.59;5032163;28;20049;-59
2022/10/09 11:30:02;;;;;;;10.88;4.50;;;;;;;13.32;62.49;102127.50;5027370;28;20409;-61
2022/10/09 11:32:33;;;;;;;9.00;4.38;;;;;;;13.31;63.65;102125.81;5030470;28;20384;-62